Time;durP1;ratioP1;P1;durP2;ratioP2;P2;SDS_P1;SDS_P2;PMS_P1;PMS_P2;Temp;Humidity;BMP_temperature;BMP_pressure;BME280_temperature;BME280_humidity;BME280_pressure;Samples;Min_cycle;Max_cycle;Signal;HPM_P1;HPM_P2
2022/12/12 14:06:19;;;;;;;20.50;13.97;;;;;;;2.72;68.95;98548.14;2461412;79;25671;-85
2022/12/12 14:09:45;;;;;;;26.85;14.80;;;;;;;2.65;68.99;98548.83;2438996;79;25644;-85
2022/12/12 14:13:28;;;;;;;15.43;10.18;;;;;;;2.69;69.02;98548.48;2392582;82;25681;-83
2022/12/12 14:17:16;;;;;;;10.28;8.15;;;;;;;2.78;69.07;98553.87;2407010;80;25715;-88
2022/12/12 14:20:37;;;;;;;11.25;7.60;;;;;;;2.92;69.08;98561.94;2369134;81;25704;-84
2022/12/12 14:25:01;;;;;;;11.73;7.10;;;;;;;3.08;68.98;98562.34;2416037;80;25801;-82
2022/12/12 14:28:32;;;;;;;6.15;5.65;;;;;;;3.33;69.05;98571.05;2304342;83;26420;-82
2022/12/12 14:32:30;;;;;;;7.60;6.55;;;;;;;3.77;68.71;98565.18;2248232;85;26441;-85
2022/12/12 14:36:53;;;;;;;8.85;6.78;;;;;;;4.16;68.28;98565.56;2215981;88;25806;-84
2022/12/12 14:40:45;;;;;;;7.67;5.67;;;;;;;4.52;67.84;98568.80;2217863;88;25855;-83
2022/12/12 14:44:39;;;;;;;8.45;5.55;;;;;;;4.84;67.38;98566.81;2170573;91;25756;-84
2022/12/12 14:48:47;;;;;;;8.23;5.28;;;;;;;5.09;66.89;98565.06;2171534;89;25690;-83
2022/12/12 14:52:11;;;;;;;5.67;4.92;;;;;;;5.31;66.51;98573.17;2166956;91;25742;-82
2022/12/12 14:56:17;;;;;;;7.30;5.15;;;;;;;5.51;66.05;98572.19;2163508;91;25783;-86
2022/12/12 14:59:46;;;;;;;5.87;4.67;;;;;;;5.66;65.68;98572.39;2115505;89;25884;-85
2022/12/12 15:03:14;;;;;;;5.90;5.10;;;;;;;5.83;65.28;98575.20;2168238;90;25405;-84
2022/12/12 15:06:53;;;;;;;7.30;5.15;;;;;;;5.95;64.97;98578.00;2173831;86;25712;-84
2022/12/12 15:10:40;;;;;;;6.10;5.10;;;;;;;6.05;64.66;98588.05;2168804;91;25857;-82
2022/12/12 15:14:56;;;;;;;4.45;4.03;;;;;;;6.15;64.36;98593.34;2133036;91;25767;-83
2022/12/12 15:18:17;;;;;;;5.37;4.90;;;;;;;6.24;64.08;98593.87;2132279;91;25740;-77
2022/12/12 15:21:51;;;;;;;7.45;4.62;;;;;;;6.34;63.80;98597.44;2176999;89;25954;-83
2022/12/12 15:25:41;;;;;;;7.35;4.40;;;;;;;6.41;63.54;98586.30;2235102;87;26395;-84
2022/12/12 15:29:14;;;;;;;5.83;4.90;;;;;;;6.47;63.30;98594.57;2237628;87;25701;-80
2022/12/12 15:32:37;;;;;;;5.25;4.75;;;;;;;6.54;63.09;98597.66;2129943;92;25814;-84
2022/12/12 15:36:32;;;;;;;6.28;5.33;;;;;;;6.58;62.87;98600.33;2118432;88;25728;-84
2022/12/12 15:40:18;;;;;;;5.50;4.60;;;;;;;6.63;62.74;98599.94;2117611;92;26132;-88
2022/12/12 15:43:58;;;;;;;661.00;366.38;;;;;;;6.67;62.49;98591.77;2060811;94;25776;-82
2022/12/12 15:47:34;;;;;;;521.92;275.93;;;;;;;6.85;65.06;98602.73;2008027;98;25794;-83
2022/12/12 15:51:03;;;;;;;626.40;347.30;;;;;;;6.96;64.74;98601.56;2008439;96;25459;-84
2022/12/12 15:54:28;;;;;;;467.40;232.87;;;;;;;7.04;65.34;98599.90;2013425;96;25968;-83
2022/12/12 15:58:23;;;;;;;669.42;376.15;;;;;;;7.10;64.96;98606.44;2014973;98;25745;-81
2022/12/12 16:01:55;;;;;;;542.80;300.05;;;;;;;7.13;65.51;98600.42;1929296;101;25514;-83
2022/12/12 16:05:40;;;;;;;488.85;254.85;;;;;;;7.20;65.46;98612.57;1939755;100;25861;-85
2022/12/12 16:09:20;;;;;;;485.60;254.28;;;;;;;7.21;64.95;98611.71;1962197;98;26183;-85
2022/12/12 16:13:05;;;;;;;432.62;215.62;;;;;;;7.22;64.81;98620.81;1943697;100;25983;-83
2022/12/12 16:16:45;;;;;;;408.12;196.47;;;;;;;7.22;64.61;98628.98;1945180;101;25786;-85
2022/12/12 16:20:28;;;;;;;382.12;186.62;;;;;;;7.22;64.36;98631.58;1944649;100;26004;-85
2022/12/12 16:23:53;;;;;;;;;;;;;;;7.22;64.23;98630.28;1901155;102;25820;-84
2022/12/12 16:27:28;;;;;;;346.23;168.52;;;;;;;7.22;64.08;98631.17;1942718;100;25925;-85
2022/12/12 16:31:15;;;;;;;325.70;159.60;;;;;;;7.22;63.94;98630.28;1977992;98;25822;-81
2022/12/12 16:34:49;;;;;;;285.60;141.40;;;;;;;7.21;63.79;98639.78;1950354;99;25858;-84
2022/12/12 16:38:30;;;;;;;;;;;;;;;;;;;;;
2022/12/12 16:41:49;;;;;;;94.10;44.93;;;;;;;7.06;62.83;98622.39;2155629;91;26337;-83
2022/12/12 16:45:21;;;;;;;196.63;87.08;;;;;;;6.72;62.55;98630.25;2100755;93;25998;-81
2022/12/12 16:48:50;;;;;;;226.35;102.17;;;;;;;6.48;62.97;98633.83;2191521;90;25779;-82
2022/12/12 16:52:22;;;;;;;225.50;107.30;;;;;;;6.32;63.26;98637.98;2194844;88;25338;-80
2022/12/12 16:56:04;;;;;;;194.25;85.67;;;;;;;6.21;63.49;98642.12;2194391;88;25803;-83
2022/12/12 16:59:29;;;;;;;142.75;63.48;;;;;;;6.18;63.73;98648.15;2190642;88;25798;-83
2022/12/12 17:03:10;;;;;;;135.48;60.70;;;;;;;6.15;63.64;98650.27;2199794;88;25822;-82
2022/12/12 17:06:30;;;;;;;138.85;62.58;;;;;;;6.17;63.71;98657.16;2190928;88;25976;-81
2022/12/12 17:10:28;;;;;;;;;;;;;;;;;;;;;
2022/12/12 17:13:56;;;;;;;145.87;64.62;;;;;;;6.45;63.63;98667.05;2187667;88;25727;-79
2022/12/12 17:17:52;;;;;;;;;;;;;;;;;;;;;
2022/12/12 17:21:15;;;;;;;181.05;86.08;;;;;;;6.61;63.47;98648.66;2127600;91;25997;-83
2022/12/12 17:24:57;;;;;;;192.30;87.08;;;;;;;6.68;63.43;98657.36;2131682;91;25758;-82
2022/12/12 17:28:36;;;;;;;216.55;100.53;;;;;;;6.76;63.32;98675.17;2099772;93;25724;-83
2022/12/12 17:32:18;;;;;;;246.40;104.32;;;;;;;6.83;63.31;98687.33;2092628;93;25721;-81
2022/12/12 17:35:54;;;;;;;229.07;104.43;;;;;;;6.87;63.22;98686.52;2080772;93;26033;-82
2022/12/12 17:39:37;;;;;;;239.20;108.25;;;;;;;6.91;63.09;98684.82;1967392;100;25769;-86
2022/12/12 17:43:17;;;;;;;204.55;97.00;;;;;;;6.93;63.07;98687.02;1969387;100;25994;-82
2022/12/12 17:46:52;;;;;;;200.62;92.42;;;;;;;6.93;62.87;98687.88;2040639;95;25753;-83
2022/12/12 17:50:20;;;;;;;192.30;88.62;;;;;;;6.93;62.78;98699.53;2033704;94;26356;-84
2022/12/12 17:53:49;;;;;;;184.18;84.37;;;;;;;6.96;62.71;98697.41;2043731;95;25801;-82
2022/12/12 17:57:15;;;;;;;207.90;92.65;;;;;;;6.97;62.64;98696.12;2043343;95;25829;-82
2022/12/12 18:00:54;;;;;;;200.85;88.62;;;;;;;7.07;63.12;98708.32;2043221;96;25989;-83
2022/12/12 18:04:34;;;;;;;186.57;84.60;;;;;;;7.14;62.96;98708.39;2057781;95;25993;-83
2022/12/12 18:08:25;;;;;;;186.82;80.17;;;;;;;7.16;62.90;98715.77;2067121;91;25482;-81
2022/12/12 18:11:56;;;;;;;159.27;73.97;;;;;;;7.19;62.92;98710.19;2099524;93;25787;-81
2022/12/12 18:15:40;;;;;;;154.23;70.42;;;;;;;7.22;62.68;98711.91;2128660;92;25905;-82
2022/12/12 18:19:08;;;;;;;138.62;67.05;;;;;;;7.20;62.64;98711.91;2130747;92;25777;-82
2022/12/12 18:22:40;;;;;;;140.77;62.15;;;;;;;7.20;62.50;98709.33;2130145;92;25797;-81
2022/12/12 18:26:19;;;;;;;;;;;;;;;;;;;;;
2022/12/12 18:29:44;;;;;;;78.37;39.70;;;;;;;7.20;62.08;98717.53;2195023;89;25734;-82
2022/12/12 18:33:28;;;;;;;63.95;28.67;;;;;;;7.04;61.68;98721.67;2212420;88;25699;-78
2022/12/12 18:37:16;;;;;;;42.70;22.32;;;;;;;6.86;61.53;98730.97;2235012;84;25675;-83
2022/12/12 18:40:48;;;;;;;34.00;18.30;;;;;;;6.68;61.37;98731.16;2300777;85;25726;-82
2022/12/12 18:44:27;;;;;;;22.40;13.00;;;;;;;6.52;61.25;98737.45;2307551;84;25813;-84
2022/12/12 18:48:00;;;;;;;23.12;12.28;;;;;;;6.38;61.20;98739.86;2164568;90;26082;-84
2022/12/12 18:51:46;;;;;;;18.25;9.33;;;;;;;6.27;61.11;98736.66;2097663;94;25985;-84
2022/12/12 18:55:12;;;;;;;12.43;8.50;;;;;;;6.18;61.09;98749.05;2094667;92;25856;-82
2022/12/12 18:58:41;;;;;;;11.18;7.75;;;;;;;6.08;61.03;98757.09;2097250;94;26029;-83
2022/12/12 19:05:57;;;;;;;9.03;7.00;;;;;;;5.90;60.93;98758.05;2004228;96;26677;-82
2022/12/12 19:09:35;;;;;;;9.25;6.55;;;;;;;5.83;60.89;98759.66;1886758;102;25887;-81
2022/12/12 19:12:54;;;;;;;9.98;6.92;;;;;;;5.75;60.85;98766.87;1954106;99;25848;-82
2022/12/12 19:19:56;;;;;;;7.92;5.15;;;;;;;5.59;60.74;98780.80;1900585;102;25951;-81
2022/12/12 19:23:40;;;;;;;;;;;;;;;;;;;;;
2022/12/12 19:27:06;;;;;;;7.75;6.67;;;;;;;5.52;60.67;98790.59;1856986;105;25927;-81
2022/12/12 19:30:32;;;;;;;6.67;6.08;;;;;;;5.47;60.60;98787.45;1857365;106;25839;-82
2022/12/12 19:34:05;;;;;;;7.60;5.87;;;;;;;5.42;60.61;98793.84;1856996;105;25857;-81
2022/12/12 19:42:54;;;;;;;9.13;6.45;;;;;;;5.30;60.51;98803.55;1854219;105;25955;-83
2022/12/12 19:46:27;;;;;;;7.20;5.42;;;;;;;5.17;60.51;98810.61;1865499;103;25846;-82
2022/12/12 19:50:02;;;;;;;10.00;6.08;;;;;;;5.11;60.55;98821.67;1841882;106;25901;-82
2022/12/12 19:53:54;;;;;;;7.17;6.22;;;;;;;5.06;60.53;98816.85;1860006;103;25858;-81
2022/12/12 19:57:58;;;;;;;9.28;6.60;;;;;;;5.01;60.54;98826.63;1878174;105;26510;-81
2022/12/12 20:02:10;;;;;;;7.83;6.58;;;;;;;4.96;60.49;98829.99;1904652;102;25807;-84
2022/12/12 20:05:53;;;;;;;13.32;6.37;;;;;;;4.91;60.50;98836.75;1970913;97;25797;-81
2022/12/12 20:09:30;;;;;;;10.00;6.78;;;;;;;4.85;60.56;98842.20;2022258;96;25830;-85
2022/12/12 20:12:53;;;;;;;12.82;6.92;;;;;;;4.82;60.54;98840.42;2002554;97;25923;-84
2022/12/12 20:16:37;;;;;;;9.03;6.80;;;;;;;4.79;60.51;98844.22;2018067;97;25837;-84
2022/12/12 20:20:22;;;;;;;10.28;6.35;;;;;;;4.76;60.50;98848.45;2029735;96;26462;-82
2022/12/12 20:23:55;;;;;;;;;;;;;;;4.68;60.51;98853.45;2023446;97;25825;-85
2022/12/12 20:27:20;;;;;;;11.78;7.87;;;;;;;4.65;60.54;98861.98;2015716;96;25874;-84
2022/12/12 20:30:47;;;;;;;14.38;8.10;;;;;;;4.60;60.54;98857.16;2015539;97;26058;-83
2022/12/12 20:34:11;;;;;;;14.85;8.65;;;;;;;4.57;60.56;98865.25;1998384;97;25827;-81
2022/12/12 20:37:32;;;;;;;8.63;7.00;;;;;;;4.54;60.61;98867.34;2046251;95;25802;-79
2022/12/12 20:40:53;;;;;;;14.85;8.08;;;;;;;4.54;60.58;98872.50;2067846;95;25782;-81
2022/12/12 20:44:18;;;;;;;13.60;7.40;;;;;;;4.52;60.59;98870.28;2067434;94;25793;-80
2022/12/12 20:47:41;;;;;;;12.43;7.45;;;;;;;4.52;60.65;98883.19;2065877;94;25958;-82
2022/12/12 20:51:07;;;;;;;10.47;7.33;;;;;;;4.53;60.61;98875.92;2061626;95;27795;-78
2022/12/12 20:54:28;;;;;;;8.63;6.40;;;;;;;4.50;60.62;98882.30;2146361;91;25762;-78
2022/12/12 20:57:49;;;;;;;8.38;6.53;;;;;;;4.46;60.65;98894.26;2248292;85;26024;-78
2022/12/12 21:01:17;;;;;;;9.97;6.40;;;;;;;4.47;60.71;98883.52;2293111;84;28119;-80
2022/12/12 21:04:40;;;;;;;7.50;5.67;;;;;;;4.49;60.66;98895.63;2269640;86;25661;-80
2022/12/12 21:08:02;;;;;;;9.30;5.83;;;;;;;4.49;60.67;98901.20;2287761;85;25820;-78
2022/12/12 21:11:24;;;;;;;9.45;6.00;;;;;;;4.49;60.57;98901.20;2307880;85;25863;-79
2022/12/12 21:14:50;;;;;;;10.63;5.95;;;;;;;4.47;60.61;98897.70;2323439;81;25657;-81
2022/12/12 21:18:19;;;;;;;8.20;6.03;;;;;;;4.46;60.62;98896.84;2426661;81;25635;-78
2022/12/12 21:21:57;;;;;;;8.93;6.25;;;;;;;4.42;60.57;98898.90;2418326;81;25663;-80
2022/12/12 21:25:21;;;;;;;8.53;5.67;;;;;;;4.42;60.71;98910.89;2358162;83;25637;-81
2022/12/12 21:28:52;;;;;;;7.67;5.58;;;;;;;4.64;60.67;98913.17;2328228;84;25807;-81
2022/12/12 21:32:19;;;;;;;9.73;6.37;;;;;;;4.89;60.50;98922.37;2312642;85;26275;-80
2022/12/12 21:36:01;;;;;;;5.92;5.33;;;;;;;5.09;60.29;98927.95;2313170;84;25950;-83
2022/12/12 21:39:30;;;;;;;9.73;5.60;;;;;;;5.25;60.11;98924.42;2273677;86;25832;-82
2022/12/12 21:43:01;;;;;;;8.80;5.83;;;;;;;5.38;59.92;98935.05;2228125;87;25840;-81
2022/12/12 21:46:43;;;;;;;8.35;6.03;;;;;;;5.51;59.74;98944.36;2234195;87;26483;-81
2022/12/12 21:50:11;;;;;;;7.42;5.22;;;;;;;5.58;59.59;98941.92;2234591;88;26446;-80
2022/12/12 21:53:40;;;;;;;6.37;4.53;;;;;;;5.67;59.45;98949.87;2231374;87;26406;-81
2022/12/12 21:57:06;;;;;;;8.60;5.70;;;;;;;5.72;59.27;98944.78;2233458;87;25266;-80
2022/12/12 22:00:51;;;;;;;10.65;5.22;;;;;;;5.79;59.19;98945.78;2212460;87;25767;-79
2022/12/12 22:04:24;;;;;;;6.97;5.33;;;;;;;5.83;59.08;98953.61;2233125;87;25744;-82
